createdAt,value
2022-12-09T00:00:05.990Z,11.88
2022-12-09T00:02:55.301Z,11.38
2022-12-09T00:05:22.911Z,12.65
2022-12-09T00:07:50.252Z,11.60
2022-12-09T00:10:18.107Z,10.73
2022-12-09T00:12:45.497Z,11.00
2022-12-09T00:15:13.288Z,9.98
2022-12-09T00:17:40.920Z,10.25
2022-12-09T00:20:11.981Z,9.32
2022-12-09T00:22:39.480Z,11.15
2022-12-09T00:25:08.257Z,10.68
2022-12-09T00:27:36.189Z,10.50
2022-12-09T00:30:05.680Z,10.93
2022-12-09T00:32:33.401Z,11.15
2022-12-09T00:35:01.021Z,10.43
2022-12-09T00:37:33.810Z,11.05
2022-12-09T00:40:01.580Z,9.95
2022-12-09T00:42:29.025Z,10.75
2022-12-09T00:44:56.870Z,9.43
2022-12-09T00:47:24.540Z,9.77
2022-12-09T00:49:52.144Z,10.48
2022-12-09T00:52:19.314Z,10.35
2022-12-09T00:54:48.352Z,10.23
2022-12-09T00:57:15.884Z,9.55
2022-12-09T00:59:43.481Z,9.90
2022-12-09T01:02:11.088Z,10.13
2022-12-09T01:04:39.200Z,8.88
2022-12-09T01:07:06.584Z,8.23
2022-12-09T01:09:34.408Z,9.32
2022-12-09T01:12:03.313Z,10.43
2022-12-09T01:14:31.040Z,9.85
2022-12-09T01:16:58.347Z,10.07
2022-12-09T01:19:26.419Z,9.48
2022-12-09T01:21:54.148Z,9.93
2022-12-09T01:24:22.649Z,10.82
2022-12-09T01:26:50.182Z,9.55
2022-12-09T01:29:19.581Z,8.57
2022-12-09T01:31:46.933Z,10.05
2022-12-09T01:34:15.019Z,9.52
2022-12-09T01:36:42.860Z,8.65
2022-12-09T01:39:11.006Z,7.50
2022-12-09T01:41:38.781Z,8.60
2022-12-09T01:44:15.596Z,8.32
2022-12-09T01:46:45.415Z,8.85
2022-12-09T01:49:17.180Z,9.13
2022-12-09T01:51:50.340Z,7.97
2022-12-09T01:54:18.423Z,8.95
2022-12-09T01:56:45.945Z,8.63
2022-12-09T01:59:15.804Z,8.98
2022-12-09T02:04:21.450Z,8.73
2022-12-09T02:06:51.462Z,8.65
2022-12-09T02:09:19.323Z,8.95
2022-12-09T02:12:02.822Z,9.02
2022-12-09T02:14:36.302Z,8.32
2022-12-09T02:17:24.213Z,9.32
2022-12-09T02:19:59.175Z,10.27
2022-12-09T02:22:31.946Z,8.18
2022-12-09T02:25:06.550Z,9.20
2022-12-09T02:27:41.576Z,8.95
2022-12-09T02:30:18.283Z,9.43
2022-12-09T02:33:22.218Z,8.68
2022-12-09T02:35:56.691Z,8.15
2022-12-09T02:38:27.701Z,9.68
2022-12-09T02:41:00.817Z,8.98
2022-12-09T02:43:34.449Z,9.48
2022-12-09T02:46:05.446Z,9.45
2022-12-09T02:48:37.224Z,8.45
2022-12-09T02:51:09.731Z,8.90
2022-12-09T02:53:39.400Z,8.75
2022-12-09T02:56:09.411Z,8.32
2022-12-09T02:58:37.354Z,9.63
2022-12-09T03:01:05.323Z,7.85
2022-12-09T03:03:35.097Z,7.88
2022-12-09T03:06:08.279Z,9.60
2022-12-09T03:08:43.832Z,8.98
2022-12-09T03:11:14.324Z,8.52
2022-12-09T03:13:51.234Z,7.63
2022-12-09T03:16:25.585Z,8.45
2022-12-09T03:18:58.546Z,7.82
2022-12-09T03:21:32.287Z,8.13
2022-12-09T03:24:02.065Z,8.88
2022-12-09T03:26:32.701Z,9.18
2022-12-09T03:29:04.263Z,8.38
2022-12-09T03:31:35.068Z,9.52
2022-12-09T03:34:06.492Z,8.20
2022-12-09T03:36:39.135Z,8.85
2022-12-09T03:39:11.090Z,9.73
2022-12-09T03:41:44.434Z,8.30
2022-12-09T03:44:18.855Z,8.93
2022-12-09T03:46:47.014Z,7.82
2022-12-09T03:49:15.970Z,9.20
2022-12-09T03:51:49.313Z,8.77
2022-12-09T03:54:22.249Z,7.35
2022-12-09T03:56:54.442Z,8.07
2022-12-09T03:59:24.402Z,8.43
2022-12-09T04:01:52.921Z,8.50
2022-12-09T04:04:21.092Z,8.57
2022-12-09T04:06:52.976Z,8.07
2022-12-09T04:09:21.515Z,9.23
2022-12-09T04:11:48.853Z,9.30
2022-12-09T04:14:17.898Z,7.50
2022-12-09T04:16:45.338Z,7.68
2022-12-09T04:19:13.181Z,7.22
2022-12-09T04:21:41.134Z,8.77
2022-12-09T04:24:10.856Z,8.75
2022-12-09T04:26:38.305Z,6.20
2022-12-09T04:29:06.350Z,6.57
2022-12-09T04:31:34.252Z,6.65
2022-12-09T04:34:08.364Z,6.90
2022-12-09T04:36:37.244Z,7.82
2022-12-09T04:39:05.382Z,7.60
2022-12-09T04:41:34.441Z,9.90
2022-12-09T04:44:04.239Z,8.02
2022-12-09T04:46:31.801Z,9.95
2022-12-09T04:48:59.928Z,9.10
2022-12-09T04:51:27.204Z,7.97
2022-12-09T04:53:55.362Z,6.50
2022-12-09T04:56:22.866Z,9.88
2022-12-09T04:58:52.510Z,8.98
2022-12-09T05:01:26.647Z,7.75
2022-12-09T05:03:59.632Z,7.85
2022-12-09T05:06:27.513Z,6.70
2022-12-09T05:08:55.818Z,6.68
2022-12-09T05:11:23.776Z,8.55
2022-12-09T05:13:54.114Z,7.63
2022-12-09T05:16:22.496Z,6.60
2022-12-09T05:18:50.772Z,6.72
2022-12-09T05:21:20.354Z,6.55
2022-12-09T05:23:48.824Z,8.25
2022-12-09T05:26:19.994Z,7.72
2022-12-09T05:28:48.696Z,9.48
2022-12-09T05:31:21.120Z,7.35
2022-12-09T05:33:50.505Z,7.45
2022-12-09T05:36:22.949Z,7.82
2022-12-09T05:38:52.011Z,8.07
2022-12-09T05:41:20.387Z,7.75
2022-12-09T05:43:48.433Z,8.68
2022-12-09T05:46:17.696Z,10.30
2022-12-09T05:48:46.181Z,8.75
2022-12-09T05:51:17.249Z,9.98
2022-12-09T05:53:45.076Z,8.68
2022-12-09T05:56:16.122Z,8.07
2022-12-09T05:58:44.419Z,9.52
2022-12-09T06:01:13.072Z,9.80
2022-12-09T06:03:42.370Z,9.85
2022-12-09T06:06:12.614Z,10.00
2022-12-09T06:08:41.941Z,10.90
2022-12-09T06:11:12.144Z,10.02
2022-12-09T06:13:40.903Z,10.73
2022-12-09T06:16:09.838Z,10.73
2022-12-09T06:18:38.417Z,11.77
2022-12-09T06:21:09.315Z,11.38
2022-12-09T06:23:39.060Z,11.20
2022-12-09T06:26:06.947Z,10.73
2022-12-09T06:28:35.345Z,12.07
2022-12-09T06:31:02.830Z,10.60
2022-12-09T06:33:54.204Z,10.55
2022-12-09T06:36:20.788Z,9.38
2022-12-09T06:38:48.950Z,10.40
2022-12-09T06:41:16.484Z,9.95
2022-12-09T06:43:45.359Z,10.52
2022-12-09T06:46:13.860Z,11.07
2022-12-09T06:48:42.048Z,9.73
2022-12-09T06:51:10.556Z,10.32
2022-12-09T06:53:39.857Z,11.10
2022-12-09T06:56:12.340Z,11.73
2022-12-09T06:58:43.107Z,10.23
2022-12-09T07:01:12.892Z,11.82
2022-12-09T07:03:42.889Z,12.05
2022-12-09T07:06:27.012Z,11.48
2022-12-09T07:08:58.313Z,10.13
2022-12-09T07:11:26.427Z,10.25
2022-12-09T07:13:54.859Z,10.45
2022-12-09T07:16:22.885Z,10.10
2022-12-09T07:18:51.264Z,9.30
2022-12-09T07:21:20.707Z,10.82
2022-12-09T07:23:49.166Z,11.45
2022-12-09T07:26:18.629Z,10.57
2022-12-09T07:28:47.571Z,11.40
2022-12-09T07:31:20.332Z,12.18
2022-12-09T07:33:49.138Z,12.90
2022-12-09T07:36:21.067Z,13.88
2022-12-09T07:38:53.986Z,10.45
2022-12-09T07:41:23.031Z,11.40
2022-12-09T07:43:51.035Z,10.95
2022-12-09T07:46:20.145Z,10.75
2022-12-09T07:48:49.386Z,10.45
2022-12-09T07:51:17.808Z,8.48
2022-12-09T07:53:46.906Z,9.45
2022-12-09T07:56:16.908Z,9.73
2022-12-09T07:58:47.099Z,9.02
2022-12-09T08:01:16.747Z,10.73
2022-12-09T08:03:46.224Z,11.52
2022-12-09T08:06:15.948Z,10.73
2022-12-09T08:08:44.519Z,10.65
2022-12-09T08:11:14.656Z,11.18
2022-12-09T08:13:43.097Z,10.68
2022-12-09T08:16:14.451Z,11.57
2022-12-09T08:18:43.850Z,11.32
2022-12-09T08:21:15.373Z,12.73
2022-12-09T08:23:43.444Z,11.88
2022-12-09T08:26:12.801Z,11.48
2022-12-09T08:28:41.420Z,12.48
2022-12-09T08:31:14.389Z,13.73
2022-12-09T08:33:43.309Z,12.73
2022-12-09T08:36:13.047Z,11.68
2022-12-09T08:38:41.507Z,11.43
2022-12-09T08:41:11.227Z,11.27
2022-12-09T08:43:40.193Z,11.40
2022-12-09T08:46:08.688Z,10.15
2022-12-09T08:48:39.832Z,10.15
2022-12-09T08:51:09.323Z,9.95
2022-12-09T08:53:37.207Z,8.98
2022-12-09T08:56:09.651Z,9.48
2022-12-09T08:58:38.193Z,9.68
2022-12-09T09:01:05.935Z,9.43
2022-12-09T09:03:34.589Z,10.07
2022-12-09T09:06:09.643Z,8.50
2022-12-09T09:08:39.124Z,10.13
2022-12-09T09:11:10.233Z,9.25
2022-12-09T09:13:39.244Z,8.98
2022-12-09T09:16:10.386Z,8.85
2022-12-09T09:18:39.376Z,9.27
2022-12-09T09:21:09.919Z,9.73
2022-12-09T09:23:38.771Z,9.25
2022-12-09T09:26:10.815Z,9.55
2022-12-09T09:28:38.664Z,9.88
2022-12-09T09:31:08.669Z,10.43
2022-12-09T09:33:37.253Z,9.95
2022-12-09T09:36:10.156Z,9.95
2022-12-09T09:38:40.386Z,9.63
2022-12-09T09:41:20.484Z,9.23
2022-12-09T09:43:49.194Z,9.32
2022-12-09T09:46:22.695Z,10.13
2022-12-09T09:48:53.164Z,9.07
2022-12-09T09:51:21.932Z,9.80
2022-12-09T09:53:52.009Z,8.32
2022-12-09T09:56:27.713Z,10.57
2022-12-09T09:59:09.670Z,10.68
2022-12-09T10:01:38.211Z,8.73
2022-12-09T10:04:14.722Z,8.05
2022-12-09T10:06:50.959Z,9.15
2022-12-09T10:09:26.832Z,10.25
2022-12-09T10:12:00.883Z,9.98
2022-12-09T10:14:40.019Z,10.35
2022-12-09T10:17:19.689Z,10.80
2022-12-09T10:19:51.158Z,10.60
2022-12-09T10:22:23.118Z,10.95
2022-12-09T10:24:56.341Z,9.73
2022-12-09T10:27:30.729Z,11.45
2022-12-09T10:30:01.027Z,10.52
2022-12-09T10:32:31.759Z,8.73
2022-12-09T10:35:00.364Z,9.50
2022-12-09T10:37:31.606Z,9.63
2022-12-09T10:40:14.825Z,8.70
2022-12-09T10:42:46.306Z,8.85
2022-12-09T10:45:14.356Z,7.45
2022-12-09T10:47:50.646Z,8.38
2022-12-09T10:50:29.275Z,10.30
2022-12-09T10:53:07.717Z,9.70
2022-12-09T10:55:40.574Z,9.18
2022-12-09T10:58:19.834Z,8.68
2022-12-09T11:01:07.800Z,9.00
2022-12-09T11:03:39.727Z,9.63
2022-12-09T11:06:24.965Z,8.07
2022-12-09T11:08:56.565Z,9.05
2022-12-09T11:11:43.709Z,8.23
2022-12-09T11:14:31.943Z,7.93
2022-12-09T11:17:13.057Z,7.78
2022-12-09T11:19:41.081Z,8.73
2022-12-09T11:22:26.663Z,8.82
2022-12-09T11:24:56.728Z,10.13
2022-12-09T11:27:30.286Z,8.55
2022-12-09T11:30:14.657Z,9.15
2022-12-09T11:33:07.918Z,9.65
2022-12-09T11:35:51.952Z,9.23
2022-12-09T11:38:30.512Z,9.70
2022-12-09T11:41:01.919Z,10.98
2022-12-09T11:43:37.899Z,9.05
2022-12-09T11:46:21.838Z,9.63
2022-12-09T11:48:56.137Z,9.20
2022-12-09T11:51:26.351Z,10.18
2022-12-09T11:54:03.249Z,10.30
2022-12-09T11:56:32.224Z,9.15
2022-12-09T11:59:05.070Z,8.93
2022-12-09T12:01:44.817Z,9.65
2022-12-09T12:04:16.846Z,8.30
2022-12-09T12:06:48.391Z,10.35
2022-12-09T12:09:22.696Z,9.32
2022-12-09T12:12:00.982Z,9.52
2022-12-09T12:14:30.716Z,9.15
2022-12-09T12:17:07.343Z,11.60
2022-12-09T12:19:38.401Z,12.48
2022-12-09T12:22:37.325Z,11.07
2022-12-09T12:25:31.316Z,10.70
2022-12-09T12:28:30.686Z,10.75
2022-12-09T12:31:10.456Z,10.30
2022-12-09T12:36:47.823Z,10.43
2022-12-09T12:39:30.150Z,10.20
2022-12-09T12:42:05.128Z,10.43
2022-12-09T12:44:45.796Z,10.48
2022-12-09T12:47:20.746Z,9.82
2022-12-09T12:50:12.279Z,10.63
2022-12-09T12:52:55.903Z,10.63
2022-12-09T12:55:41.527Z,10.27
2022-12-09T12:58:17.118Z,10.35
2022-12-09T13:00:55.363Z,12.55
2022-12-09T13:03:27.468Z,11.85
2022-12-09T13:05:58.009Z,11.32
2022-12-09T13:08:33.642Z,13.10
2022-12-09T13:11:08.820Z,11.45
2022-12-09T13:13:42.579Z,11.15
2022-12-09T13:16:18.241Z,13.13
2022-12-09T13:18:49.195Z,12.02
2022-12-09T13:21:17.367Z,13.40
2022-12-09T13:23:55.489Z,14.35
2022-12-09T13:26:38.622Z,12.35
2022-12-09T13:29:19.491Z,11.48
2022-12-09T13:31:57.140Z,12.25
2022-12-09T13:34:35.932Z,11.98
2022-12-09T13:37:04.239Z,10.38
2022-12-09T13:39:57.105Z,10.38
2022-12-09T13:42:46.569Z,10.27
2022-12-09T13:45:17.149Z,10.82
2022-12-09T13:47:44.888Z,11.43
2022-12-09T13:50:26.194Z,12.45
2022-12-09T13:52:56.994Z,9.82
2022-12-09T13:55:47.544Z,10.00
2022-12-09T13:58:29.817Z,11.15
2022-12-09T14:01:07.737Z,10.32
2022-12-09T14:03:45.443Z,11.38
2022-12-09T14:06:23.892Z,12.35
2022-12-09T14:08:54.657Z,10.73
2022-12-09T14:11:44.173Z,12.70
2022-12-09T14:14:57.322Z,10.77
2022-12-09T14:17:59.956Z,10.75
2022-12-09T14:20:36.850Z,11.20
2022-12-09T14:23:19.084Z,12.30
2022-12-09T14:26:04.343Z,11.75
2022-12-09T14:28:59.112Z,11.98
2022-12-09T14:32:01.089Z,12.45
2022-12-09T14:34:38.591Z,12.73
2022-12-09T14:37:30.656Z,13.95
2022-12-09T14:40:15.933Z,12.15
2022-12-09T14:42:53.262Z,12.65
2022-12-09T14:45:31.069Z,13.25
2022-12-09T14:47:58.991Z,12.77
2022-12-09T14:50:28.635Z,13.02
2022-12-09T14:53:00.935Z,13.15
2022-12-09T14:58:00.218Z,13.32
2022-12-09T15:00:31.709Z,11.93
2022-12-09T15:03:31.380Z,11.43
2022-12-09T15:05:55.469Z,13.02
2022-12-09T15:08:33.864Z,13.98
2022-12-09T15:11:08.880Z,13.38
2022-12-09T15:13:36.800Z,12.07
2022-12-09T15:16:09.144Z,13.95
2022-12-09T15:18:39.074Z,12.02
2022-12-09T15:21:07.643Z,12.65
2022-12-09T15:23:37.970Z,12.55
2022-12-09T15:26:17.786Z,12.18
2022-12-09T15:31:17.903Z,11.82
2022-12-09T15:33:48.121Z,13.52
2022-12-09T15:36:20.883Z,13.85
2022-12-09T15:38:52.336Z,14.40
2022-12-09T15:41:23.431Z,14.02
2022-12-09T15:43:55.192Z,13.85
2022-12-09T15:46:26.123Z,13.90
2022-12-09T15:48:57.233Z,13.70
2022-12-09T15:51:26.304Z,12.00
2022-12-09T15:53:58.043Z,12.80
2022-12-09T15:56:31.681Z,13.05
2022-12-09T16:01:34.328Z,12.02
2022-12-09T16:04:03.798Z,12.93
2022-12-09T16:06:35.434Z,12.18
2022-12-09T16:09:11.084Z,14.57
2022-12-09T16:11:42.674Z,14.07
2022-12-09T16:14:11.170Z,12.40
2022-12-09T16:16:45.049Z,14.80
2022-12-09T16:19:31.391Z,14.90
2022-12-09T16:22:02.153Z,13.30
2022-12-09T16:24:50.703Z,14.77
2022-12-09T16:27:23.439Z,13.07
2022-12-09T16:29:54.185Z,13.10
2022-12-09T16:32:26.970Z,12.10
2022-12-09T16:34:55.948Z,13.35
2022-12-09T16:37:38.032Z,12.98
2022-12-09T16:40:57.229Z,13.10
2022-12-09T16:43:27.766Z,13.15
2022-12-09T16:45:56.819Z,13.57
2022-12-09T16:48:26.903Z,15.63
2022-12-09T16:50:57.459Z,14.32
2022-12-09T16:53:29.938Z,16.08
2022-12-09T16:55:59.245Z,15.18
2022-12-09T16:58:30.645Z,16.17
2022-12-09T17:00:59.235Z,15.10
2022-12-09T17:03:34.974Z,17.08
2022-12-09T17:06:02.779Z,16.15
2022-12-09T17:08:30.833Z,16.52
2022-12-09T17:10:58.349Z,15.40
2022-12-09T17:13:29.117Z,15.40
2022-12-09T17:15:56.932Z,17.83
2022-12-09T17:18:25.026Z,17.70
2022-12-09T17:21:00.098Z,17.60
2022-12-09T17:23:28.055Z,18.58
2022-12-09T17:25:59.385Z,17.90
2022-12-09T17:28:30.240Z,18.52
2022-12-09T17:30:59.790Z,18.08
2022-12-09T17:33:29.387Z,16.67
2022-12-09T17:35:56.949Z,16.52
2022-12-09T17:38:25.071Z,19.08
2022-12-09T17:40:52.533Z,18.73
2022-12-09T17:43:20.569Z,18.65
2022-12-09T17:45:50.043Z,18.58
2022-12-09T17:48:18.584Z,18.17
2022-12-09T17:50:46.032Z,17.88
2022-12-09T17:53:13.712Z,17.38
2022-12-09T17:55:41.031Z,18.48
2022-12-09T17:58:08.842Z,18.50
2022-12-09T18:02:21.244Z,16.27
2022-12-09T18:04:49.222Z,19.05
2022-12-09T18:07:16.694Z,15.90
2022-12-09T18:09:45.852Z,18.02
2022-12-09T18:12:15.924Z,19.20
2022-12-09T18:14:44.043Z,18.88
2022-12-09T18:17:11.518Z,19.25
2022-12-09T18:19:41.051Z,19.70
2022-12-09T18:22:08.609Z,19.13
2022-12-09T18:24:36.441Z,18.60
2022-12-09T18:27:04.054Z,21.65
2022-12-09T18:29:32.036Z,18.85
2022-12-09T18:31:59.662Z,19.20
2022-12-09T18:34:28.743Z,20.83
2022-12-09T18:36:57.602Z,20.25
2022-12-09T18:39:25.353Z,21.23
2022-12-09T18:41:52.994Z,20.10
2022-12-09T18:44:24.134Z,17.15
2022-12-09T18:46:51.716Z,19.60
2022-12-09T18:49:21.701Z,20.73
2022-12-09T18:51:50.788Z,20.67
2022-12-09T18:54:21.570Z,20.00
2022-12-09T18:56:49.171Z,19.83
2022-12-09T18:59:20.503Z,20.85
2022-12-09T19:01:49.197Z,21.08
2022-12-09T19:04:19.221Z,20.88
2022-12-09T19:06:48.528Z,17.08
2022-12-09T19:09:20.641Z,20.73
2022-12-09T19:11:49.296Z,20.73
2022-12-09T19:14:18.936Z,20.58
2022-12-09T19:16:47.760Z,20.02
2022-12-09T19:19:18.863Z,19.73
2022-12-09T19:21:47.165Z,19.08
2022-12-09T19:24:16.829Z,19.13
2022-12-09T19:26:46.019Z,22.52
2022-12-09T19:29:15.441Z,20.10
2022-12-09T19:31:44.116Z,20.85
2022-12-09T19:34:14.826Z,20.27
2022-12-09T19:36:42.590Z,20.95
2022-12-09T19:39:12.761Z,20.38
2022-12-09T19:41:41.174Z,20.75
2022-12-09T19:44:11.524Z,21.02
2022-12-09T19:46:39.084Z,21.38
2022-12-09T19:49:07.364Z,22.52
2022-12-09T19:51:34.997Z,19.67
2022-12-09T19:54:02.867Z,20.15
2022-12-09T19:56:30.523Z,19.75
2022-12-09T19:58:59.797Z,22.33
2022-12-09T20:01:31.034Z,19.77
2022-12-09T20:04:13.629Z,20.60
2022-12-09T20:06:49.248Z,18.98
2022-12-09T20:09:18.460Z,21.17
2022-12-09T20:11:46.195Z,22.95
2022-12-09T20:14:14.404Z,23.17
2022-12-09T20:16:43.604Z,21.25
2022-12-09T20:19:11.459Z,21.70
2022-12-09T20:21:39.036Z,20.48
2022-12-09T20:24:08.517Z,21.10
2022-12-09T20:26:37.151Z,22.30
2022-12-09T20:29:07.042Z,21.48
2022-12-09T20:31:37.148Z,22.27
2022-12-09T20:34:10.658Z,19.52
2022-12-09T20:36:40.653Z,20.92
2022-12-09T20:39:11.817Z,21.92
2022-12-09T20:41:40.206Z,23.85
2022-12-09T20:44:10.790Z,23.40
2022-12-09T20:46:39.365Z,23.23
2022-12-09T20:49:10.065Z,22.33
2022-12-09T20:51:39.608Z,23.02
2022-12-09T20:54:10.205Z,25.80
2022-12-09T20:56:37.683Z,24.23
2022-12-09T20:59:05.846Z,24.63
2022-12-09T21:01:35.632Z,23.63
2022-12-09T21:04:05.735Z,22.90
2022-12-09T21:06:36.516Z,23.65
2022-12-09T21:09:06.865Z,24.35
2022-12-09T21:11:34.665Z,23.75
2022-12-09T21:14:04.865Z,23.77
2022-12-09T21:16:34.377Z,24.88
2022-12-09T21:19:04.471Z,26.42
2022-12-09T21:21:35.942Z,24.63
2022-12-09T21:24:04.703Z,24.48
2022-12-09T21:26:32.308Z,27.90
2022-12-09T21:29:01.862Z,26.85
2022-12-09T21:31:31.589Z,27.25
2022-12-09T21:34:01.477Z,26.33
2022-12-09T21:36:30.216Z,25.27
2022-12-09T21:38:59.795Z,24.20
2022-12-09T21:41:29.133Z,27.17
2022-12-09T21:43:57.608Z,26.10
2022-12-09T21:46:27.298Z,27.08
2022-12-09T21:49:01.747Z,26.15
2022-12-09T21:51:32.226Z,24.77
2022-12-09T21:54:02.196Z,24.90
2022-12-09T21:56:31.665Z,25.70
2022-12-09T21:59:00.020Z,24.73
2022-12-09T22:01:30.019Z,26.35
2022-12-09T22:03:59.972Z,24.33
2022-12-09T22:06:28.142Z,26.10
2022-12-09T22:08:58.436Z,25.77
2022-12-09T22:11:30.955Z,24.98
2022-12-09T22:14:00.661Z,26.05
2022-12-09T22:16:30.194Z,25.83
2022-12-09T22:18:59.392Z,26.08
2022-12-09T22:21:29.372Z,20.88
2022-12-09T22:24:00.154Z,26.55
2022-12-09T22:26:29.348Z,23.20
2022-12-09T22:28:59.667Z,25.20
2022-12-09T22:31:29.731Z,26.42
2022-12-09T22:34:00.567Z,24.92
2022-12-09T22:36:28.281Z,24.13
2022-12-09T22:38:56.777Z,24.02
2022-12-09T22:41:25.951Z,25.27
2022-12-09T22:43:56.044Z,22.67
2022-12-09T22:46:25.973Z,25.92
2022-12-09T22:48:54.496Z,21.83
2022-12-09T22:51:24.076Z,23.15
2022-12-09T22:53:53.539Z,21.05
2022-12-09T22:56:21.827Z,23.25
2022-12-09T22:58:50.571Z,24.27
2022-12-09T23:01:21.975Z,19.50
2022-12-09T23:03:50.164Z,20.70
2022-12-09T23:06:18.216Z,22.70
2022-12-09T23:08:46.383Z,22.65
2022-12-09T23:11:15.833Z,22.73
2022-12-09T23:13:44.201Z,21.33
2022-12-09T23:16:13.459Z,23.52
2022-12-09T23:18:43.158Z,24.08
2022-12-09T23:21:12.539Z,22.20
2022-12-09T23:23:40.487Z,24.10
2022-12-09T23:26:09.888Z,22.52
2022-12-09T23:28:37.853Z,21.80
2022-12-09T23:31:06.768Z,20.92
2022-12-09T23:33:35.322Z,23.60
2022-12-09T23:36:08.833Z,23.30
2022-12-09T23:38:37.591Z,22.38
2022-12-09T23:41:05.682Z,23.27
2022-12-09T23:43:34.530Z,24.90
2022-12-09T23:46:02.197Z,21.13
2022-12-09T23:48:30.109Z,23.30
2022-12-09T23:50:57.939Z,21.48
2022-12-09T23:53:27.171Z,22.83
2022-12-09T23:55:54.525Z,23.60
2022-12-09T23:58:22.568Z,21.00
